Share

Ercan, Cyprus

Ercan (LCEN) Elev 299 ft | 35.15 °N, 33.50 °E | Change Station

Current weather conditions updated 36 minutes ago

Light Rain Showers
Light Showers Rain
61 °F
Feels Like 61 °F
N
7
Wind Variable Wind from SSW
Sunrise 6:09 AM
Sunset 7:21 PM
Moon Waning Gibbous

Today is forecast to be Cooler than yesterday. Light rain.

Pressure 29.95 in
Visibility 6.2 miles
Clouds Few 2500 ft
Scattered Clouds 3000 ft
Mostly Cloudy 10000 ft
Dew Point 55 °F
Humidity 82%
Rainfall 0.00 in
Snow Depth Not available.
UV 0 out of 16
Pollen Not available.
Air Quality Not available.
Flu Activity Not available.
METAR LCEN 190320Z 21006KT 9999 -SHRA FEW025 SCT030 BKN100 16/13 Q1014 NOSIG

More Conditions Fewer Conditions

Pressure 29.95 in
Visibility 6.2 miles
Clouds Few 2500 ft
Scattered Clouds 3000 ft
Mostly Cloudy 10000 ft
Dew Point 55 °F
Humidity 82%
Rainfall 0.00 in
Snow Depth Not available.
UV 0 out of 16
Pollen Not available.
Air Quality Not available.
Flu Activity Not available.
METAR LCEN 190320Z 21006KT 9999 -SHRA FEW025 SCT030 BKN100 16/13 Q1014 NOSIG

More Conditions Fewer Conditions

10-Day Weather Forecast

Almanac

Astronomy

Apr. 19, 2014 Rise Set
Actual Time 6:09 AM EEST 7:21 PM EEST
Civil Twilight 5:42 AM EEST 7:48 PM EEST
Nautical Twilight 5:11 AM EEST 8:19 PM EEST
Astronomical Twilight 4:39 AM EEST 8:52 PM EEST
Moon 11:39 PM EEST 9:12 AM EEST
Length of Visible Light 14h 05m
Length of Day
13h 12m
Tomorrow will be 2m 4s longer.
Waning Gibbous, 83% of the Moon is Illuminated
Apr 18
Waning Gibbous
Apr 22
Last Quarter
Apr 29
New
May 6
First Quarter
May 14
Full

Yesterday's Extremes

Country Highs Country Lows

Community

  • Sunset Silhouettes
    Sunset Silhouettes
  • FL sunset Perico Isle
    FL sunset Perico Isle
  • Cloudy spring view
    Cloudy spring view
  • Old barn
    Old barn
  • What's for Lunch?
    What's for Lunch?

WunderPhotos

Upload Photos

1,702,630 photos uploaded!

WunderBlogs® & News

Nearby

Snow Depth

Not available.

Coastal Water Temperatures

Place Temperature
No Stations Reporting

Earthquake Activity

City Distance Mag. Time & Date
No recent earthquake activity has been reported nearby.
Minimum magnitude displayed is 2.5.

Nearby Weather Stations

Station Location Temp. Dew Point Humidity Wind Precip. Elev Updated Type
MOSFILOTI, Mosfiloti 59.6 °F 57 °F 92% NW  at  0.0 mph 0.01 in / hr 892 ft 6:56 AM EEST Rapid Fire
Avgorou, Cyprus, Avgorou 63.9 °F 60 °F 88% NNE  at  5.0 mph 0.00 in / hr 125 ft 6:51 AM EEST Normal

Show More Stations Show Fewer Stations

What do you think?

We're not finished. Please let us know what you like, what you don't like, and what you are still missing.